Time;durP1;ratioP1;P1;durP2;ratioP2;P2;SDS_P1;SDS_P2;PMS_P1;PMS_P2;Temp;Humidity;BMP_temperature;BMP_pressure;BME280_temperature;BME280_humidity;BME280_pressure;Samples;Min_cycle;Max_cycle;Signal;HPM_P1;HPM_P2
2023/07/09 00:01:29;;;;;;;7.30;4.25;;;;;;;;;;5113679;28;20507;-63
2023/07/09 00:03:57;;;;;;;8.07;4.75;;;;;;;;;;5113977;28;20408;-63
2023/07/09 00:06:24;;;;;;;6.63;4.75;;;;;;;;;;5113625;28;20047;-63
2023/07/09 00:08:51;;;;;;;6.60;4.78;;;;;;;;;;5103140;28;20048;-63
2023/07/09 00:11:18;;;;;;;6.78;4.13;;;;;;;;;;5107023;28;20062;-63
2023/07/09 00:13:44;;;;;;;5.65;4.55;;;;;;;;;;5113789;28;20059;-62
2023/07/09 00:16:13;;;;;;;13.00;5.55;;;;;;;;;;5113369;28;20051;-63
2023/07/09 00:18:39;;;;;;;6.10;4.65;;;;;;;;;;5113684;28;20047;-63
2023/07/09 00:21:08;;;;;;;6.40;4.32;;;;;;;;;;5113939;28;20425;-67
2023/07/09 00:23:35;;;;;;;6.75;4.72;;;;;;;;;;5111242;28;20052;-66
2023/07/09 00:26:03;;;;;;;5.93;4.53;;;;;;;;;;5110476;28;20048;-67
2023/07/09 00:28:30;;;;;;;6.80;4.72;;;;;;;;;;5113565;28;20062;-66
2023/07/09 00:30:57;;;;;;;7.28;4.50;;;;;;;;;;5113164;28;20056;-66
2023/07/09 00:33:31;;;;;;;7.18;4.80;;;;;;;;;;5113238;28;20056;-66
2023/07/09 00:35:58;;;;;;;7.13;4.50;;;;;;;;;;5106078;28;20488;-66
2023/07/09 00:38:26;;;;;;;5.95;4.90;;;;;;;;;;5109003;28;20058;-65
2023/07/09 00:41:02;;;;;;;8.13;4.97;;;;;;;;;;5097010;28;20047;-67
2023/07/09 00:43:31;;;;;;;6.35;4.90;;;;;;;;;;5113314;28;20051;-66
2023/07/09 00:46:12;;;;;;;7.15;4.65;;;;;;;;;;5113139;28;20081;-66
2023/07/09 00:48:39;;;;;;;6.38;4.22;;;;;;;;;;5113515;28;20062;-65
2023/07/09 00:51:10;;;;;;;7.25;5.03;;;;;;;;;;5113121;28;20357;-65
2023/07/09 00:53:39;;;;;;;7.18;4.47;;;;;;;;;;5109271;28;20051;-66
2023/07/09 00:56:09;;;;;;;6.65;4.60;;;;;;;;;;5111935;28;20047;-65
2023/07/09 00:58:38;;;;;;;6.15;4.03;;;;;;;;;;5113088;28;20048;-65
2023/07/09 01:01:07;;;;;;;7.70;4.88;;;;;;;;;;5112936;28;20058;-65
2023/07/09 01:03:34;;;;;;;;;;;;;;;;;;5113209;28;20059;-65
2023/07/09 01:06:01;;;;;;;5.60;4.43;;;;;;;;;;5112467;28;20298;-65
2023/07/09 01:08:30;;;;;;;7.32;5.20;;;;;;;;;;5105906;28;20056;-66
2023/07/09 01:10:59;;;;;;;6.90;4.93;;;;;;;;;;5105052;28;20059;-66
2023/07/09 01:13:27;;;;;;;7.35;5.07;;;;;;;;;;5112493;28;20052;-66
2023/07/09 01:15:54;;;;;;;6.40;4.55;;;;;;;;;;5112398;28;20055;-66
2023/07/09 01:18:21;;;;;;;5.75;4.43;;;;;;;;;;5112977;28;20469;-65
2023/07/09 01:20:48;;;;;;;7.15;4.88;;;;;;;;;;5112883;28;20054;-65
2023/07/09 01:23:16;;;;;;;7.95;4.55;;;;;;;;;;5107033;28;20131;-66
2023/07/09 01:25:44;;;;;;;5.72;4.53;;;;;;;;;;5112787;28;20054;-66
2023/07/09 01:28:11;;;;;;;8.13;5.00;;;;;;;;;;5112649;28;20047;-65
2023/07/09 01:30:39;;;;;;;7.25;5.20;;;;;;;;;;5112809;28;20055;-65
2023/07/09 01:33:06;;;;;;;5.85;4.47;;;;;;;;;;5112690;28;20436;-65
2023/07/09 01:35:34;;;;;;;5.75;4.18;;;;;;;;;;5112840;28;20056;-67
2023/07/09 01:38:01;;;;;;;6.80;4.40;;;;;;;;;;5106388;28;20052;-66
2023/07/09 01:40:29;;;;;;;5.50;4.53;;;;;;;;;;5111149;28;20059;-66
2023/07/09 01:42:58;;;;;;;7.28;4.40;;;;;;;;;;5112282;28;20063;-65
2023/07/09 01:45:25;;;;;;;6.88;4.53;;;;;;;;;;5112405;28;20512;-66
2023/07/09 01:47:53;;;;;;;5.65;4.60;;;;;;;;;;5099370;28;20491;-65
2023/07/09 01:50:20;;;;;;;6.13;4.50;;;;;;;;;;5113909;28;20051;-65
2023/07/09 01:52:49;;;;;;;7.10;4.60;;;;;;;;;;5116273;28;20464;-65
2023/07/09 01:55:17;;;;;;;5.65;4.20;;;;;;;;;;5113679;28;20056;-66
2023/07/09 01:57:45;;;;;;;7.03;4.68;;;;;;;;;;5116384;28;20055;-65
2023/07/09 02:00:13;;;;;;;7.30;4.40;;;;;;;;;;5116585;28;20047;-65
2023/07/09 02:02:42;;;;;;;6.95;4.63;;;;;;;;;;5116176;28;20063;-65
2023/07/09 02:05:10;;;;;;;7.03;4.30;;;;;;;;;;5116099;28;20089;-65
2023/07/09 02:07:37;;;;;;;7.28;4.50;;;;;;;;;;5112676;28;20051;-65
2023/07/09 02:10:04;;;;;;;8.20;4.90;;;;;;;;;;5109768;28;20059;-65
2023/07/09 02:12:30;;;;;;;6.63;4.82;;;;;;;;;;5115736;28;20141;-65
2023/07/09 02:14:59;;;;;;;7.22;4.88;;;;;;;;;;5116148;28;20396;-65
2023/07/09 02:17:25;;;;;;;6.10;4.63;;;;;;;;;;5115635;28;20067;-65
2023/07/09 02:19:52;;;;;;;6.38;4.13;;;;;;;;;;5115619;28;20052;-63
2023/07/09 02:22:20;;;;;;;7.93;4.93;;;;;;;;;;5115821;28;20415;-63
2023/07/09 02:24:47;;;;;;;6.38;4.63;;;;;;;;;;5110736;28;20411;-62
2023/07/09 02:27:16;;;;;;;6.55;4.55;;;;;;;;;;5115469;28;20063;-63
2023/07/09 02:29:43;;;;;;;7.07;5.10;;;;;;;;;;5116038;28;20063;-62
2023/07/09 02:32:14;;;;;;;8.93;5.25;;;;;;;;;;5116377;28;20133;-66
2023/07/09 02:34:41;;;;;;;6.25;4.80;;;;;;;;;;5116060;28;20055;-66
2023/07/09 02:37:07;;;;;;;7.55;4.90;;;;;;;;;;5115772;28;20464;-65
2023/07/09 02:39:34;;;;;;;7.20;4.55;;;;;;;;;;5111190;28;20047;-65
2023/07/09 02:42:01;;;;;;;6.43;4.63;;;;;;;;;;5115703;28;20051;-66
2023/07/09 02:44:28;;;;;;;7.20;4.43;;;;;;;;;;5115972;28;20314;-65
2023/07/09 02:46:54;;;;;;;8.43;5.63;;;;;;;;;;5115192;28;20491;-65
2023/07/09 02:49:23;;;;;;;7.70;4.93;;;;;;;;;;5115816;28;20507;-65
2023/07/09 02:51:49;;;;;;;6.38;5.07;;;;;;;;;;5107607;28;20522;-63
2023/07/09 02:54:16;;;;;;;5.70;4.50;;;;;;;;;;5090915;28;20497;-62
2023/07/09 02:56:43;;;;;;;10.52;4.28;;;;;;;;;;5094643;28;20350;-63
2023/07/09 02:59:11;;;;;;;7.13;4.60;;;;;;;;;;5094983;28;20060;-62
2023/07/09 03:01:38;;;;;;;6.53;5.03;;;;;;;;;;5094117;28;20056;-62
2023/07/09 03:04:04;;;;;;;6.97;5.07;;;;;;;;;;5095250;28;20450;-62
2023/07/09 03:06:33;;;;;;;9.38;4.68;;;;;;;;;;5094667;28;20052;-62
2023/07/09 03:09:00;;;;;;;9.50;5.15;;;;;;;;;;5095032;28;20056;-63
2023/07/09 03:11:29;;;;;;;5.63;4.75;;;;;;;;;;5114740;28;20051;-63
2023/07/09 03:13:55;;;;;;;7.07;4.68;;;;;;;;;;5115144;28;20062;-65
2023/07/09 03:16:22;;;;;;;5.68;4.78;;;;;;;;;;5114526;28;20055;-65
2023/07/09 03:18:49;;;;;;;9.05;4.80;;;;;;;;;;5106685;28;20055;-65
2023/07/09 03:21:16;;;;;;;7.07;4.53;;;;;;;;;;5114767;28;20066;-66
2023/07/09 03:23:44;;;;;;;7.45;4.90;;;;;;;;;;5110310;28;20048;-65
2023/07/09 03:26:11;;;;;;;6.68;5.28;;;;;;;;;;5114535;28;20060;-65
2023/07/09 03:28:38;;;;;;;8.18;5.22;;;;;;;;;;5114613;28;20052;-65
2023/07/09 03:31:05;;;;;;;6.18;4.65;;;;;;;;;;5114712;28;20051;-65
2023/07/09 03:33:31;;;;;;;6.80;4.72;;;;;;;;;;5114743;28;20055;-65
2023/07/09 03:35:58;;;;;;;6.97;4.88;;;;;;;;;;5114615;28;20384;-66
2023/07/09 03:38:25;;;;;;;9.07;5.20;;;;;;;;;;5108274;28;20059;-66
2023/07/09 03:40:53;;;;;;;6.95;5.35;;;;;;;;;;5114203;28;20051;-65
2023/07/09 03:43:21;;;;;;;8.57;5.32;;;;;;;;;;5114335;28;20062;-65
2023/07/09 03:45:48;;;;;;;6.57;4.57;;;;;;;;;;5112136;28;20059;-66
2023/07/09 03:48:15;;;;;;;7.53;5.22;;;;;;;;;;5114371;28;20055;-65
2023/07/09 03:50:42;;;;;;;8.85;5.22;;;;;;;;;;5114745;28;20047;-66
2023/07/09 03:53:09;;;;;;;6.95;4.93;;;;;;;;;;5110010;28;20157;-63
2023/07/09 03:55:37;;;;;;;6.18;4.05;;;;;;;;;;5114408;28;20056;-63
2023/07/09 03:58:05;;;;;;;7.65;4.90;;;;;;;;;;5114193;28;20048;-65
2023/07/09 04:00:32;;;;;;;8.10;5.03;;;;;;;;;;5113844;28;20058;-65
2023/07/09 04:02:59;;;;;;;6.88;4.78;;;;;;;;;;5092428;28;20059;-65
2023/07/09 04:05:26;;;;;;;6.57;4.60;;;;;;;;;;5093658;28;20052;-65
2023/07/09 04:07:53;;;;;;;9.60;5.40;;;;;;;;;;5088122;28;20044;-65
2023/07/09 04:10:21;;;;;;;6.63;5.03;;;;;;;;;;5092335;28;20395;-66
2023/07/09 04:12:47;;;;;;;6.82;4.72;;;;;;;;;;5113422;28;20055;-65
2023/07/09 04:15:15;;;;;;;8.30;5.65;;;;;;;;;;5113772;28;20062;-65
2023/07/09 04:17:42;;;;;;;11.60;5.22;;;;;;;;;;5113430;28;20349;-66
2023/07/09 04:20:10;;;;;;;7.68;5.82;;;;;;;;;;5113304;28;20060;-65
2023/07/09 04:22:37;;;;;;;7.47;5.07;;;;;;;;;;5109016;28;20051;-65
2023/07/09 04:25:04;;;;;;;10.20;4.90;;;;;;;;;;5111458;28;20101;-66
2023/07/09 04:27:31;;;;;;;9.00;4.97;;;;;;;;;;5113309;28;20063;-65
2023/07/09 04:29:58;;;;;;;7.93;5.68;;;;;;;;;;5113553;28;20132;-66
2023/07/09 04:32:26;;;;;;;8.65;5.68;;;;;;;;;;5113102;28;20408;-64
2023/07/09 04:34:53;;;;;;;7.32;5.28;;;;;;;;;;5113511;28;20052;-65
2023/07/09 04:37:20;;;;;;;5.63;4.78;;;;;;;;;;5113319;28;20056;-65
2023/07/09 04:39:47;;;;;;;7.35;4.47;;;;;;;;;;5107037;28;20062;-66
2023/07/09 04:42:16;;;;;;;7.60;5.28;;;;;;;;;;5074651;28;20071;-65
2023/07/09 04:44:43;;;;;;;6.57;4.30;;;;;;;;;;5072889;28;20049;-65
2023/07/09 04:47:12;;;;;;;7.38;5.28;;;;;;;;;;5074841;28;20056;-62
2023/07/09 04:49:41;;;;;;;7.28;5.68;;;;;;;;;;5072884;28;20045;-62
2023/07/09 04:52:10;;;;;;;8.70;5.05;;;;;;;;;;5072636;28;20057;-63
2023/07/09 04:54:38;;;;;;;6.18;4.93;;;;;;;;;;5097976;28;20488;-62
2023/07/09 04:57:05;;;;;;;7.47;5.38;;;;;;;;;;5112735;28;20047;-63
2023/07/09 04:59:32;;;;;;;6.65;5.38;;;;;;;;;;5112718;28;20376;-62
2023/07/09 05:01:59;;;;;;;7.00;4.68;;;;;;;;;;5101015;28;20058;-62
2023/07/09 05:04:26;;;;;;;8.50;5.03;;;;;;;;;;5108210;28;20059;-62
2023/07/09 05:06:54;;;;;;;8.35;5.00;;;;;;;;;;5110013;28;20411;-67
2023/07/09 05:09:21;;;;;;;7.13;4.95;;;;;;;;;;5095006;28;20155;-65
2023/07/09 05:11:48;;;;;;;11.05;5.78;;;;;;;;;;5111862;28;20058;-66
2023/07/09 05:14:15;;;;;;;7.18;4.88;;;;;;;;;;5100897;28;20056;-65
2023/07/09 05:16:41;;;;;;;7.47;5.20;;;;;;;;;;5111469;28;20059;-65
2023/07/09 05:19:09;;;;;;;7.47;5.25;;;;;;;;;;5112457;28;20055;-65
2023/07/09 05:21:35;;;;;;;7.68;5.20;;;;;;;;;;5113091;28;20055;-65
2023/07/09 05:24:04;;;;;;;7.53;5.50;;;;;;;;;;5107464;28;20411;-65
2023/07/09 05:26:31;;;;;;;6.50;5.10;;;;;;;;;;5110880;28;20055;-63
2023/07/09 05:28:58;;;;;;;6.18;5.07;;;;;;;;;;5112643;28;20054;-62
2023/07/09 05:31:25;;;;;;;8.82;4.68;;;;;;;;;;5113605;28;20062;-64
2023/07/09 05:33:52;;;;;;;8.70;4.30;;;;;;;;;;5109177;28;20055;-64
2023/07/09 05:36:19;;;;;;;7.65;5.38;;;;;;;;;;5112902;28;20510;-65
2023/07/09 05:38:46;;;;;;;8.82;5.65;;;;;;;;;;5108174;28;20043;-62
2023/07/09 05:41:16;;;;;;;7.78;5.70;;;;;;;;;;5112909;28;20400;-61
2023/07/09 05:43:44;;;;;;;9.68;5.88;;;;;;;;;;5112574;28;20058;-62
2023/07/09 05:46:11;;;;;;;8.88;6.00;;;;;;;;;;5112625;28;20056;-62
2023/07/09 05:48:37;;;;;;;6.38;5.45;;;;;;;;;;5112224;28;20093;-62
2023/07/09 05:51:04;;;;;;;8.38;5.60;;;;;;;;;;5112695;28;20051;-65
2023/07/09 05:53:31;;;;;;;8.05;6.50;;;;;;;;;;5107477;28;20055;-65
2023/07/09 05:55:59;;;;;;;8.30;5.53;;;;;;;;;;5112349;28;20055;-65
2023/07/09 05:58:27;;;;;;;7.22;5.25;;;;;;;;;;5112212;28;20044;-65
2023/07/09 06:00:55;;;;;;;5.88;4.93;;;;;;;;;;5112249;28;20059;-65
2023/07/09 06:03:23;;;;;;;8.57;5.63;;;;;;;;;;5093065;28;20056;-64
2023/07/09 06:05:50;;;;;;;7.50;5.28;;;;;;;;;;5092093;28;20063;-64
2023/07/09 06:08:17;;;;;;;7.63;5.43;;;;;;;;;;5086643;28;20056;-64
2023/07/09 06:10:51;;;;;;;8.00;6.15;;;;;;;;;;5111284;28;20054;-64
2023/07/09 06:13:18;;;;;;;8.85;5.93;;;;;;;;;;5107615;28;20063;-65
2023/07/09 06:15:46;;;;;;;6.40;5.40;;;;;;;;;;5107841;28;20161;-64
2023/07/09 06:18:13;;;;;;;7.20;5.33;;;;;;;;;;5112102;28;20060;-64
2023/07/09 06:20:40;;;;;;;6.15;5.55;;;;;;;;;;5112198;28;20424;-64
2023/07/09 06:23:07;;;;;;;9.15;5.45;;;;;;;;;;5108039;28;20051;-65
2023/07/09 06:25:33;;;;;;;7.93;5.88;;;;;;;;;;5112003;28;20058;-64
2023/07/09 06:28:00;;;;;;;7.18;5.65;;;;;;;;;;5111731;28;20059;-65
2023/07/09 06:30:27;;;;;;;9.75;6.05;;;;;;;;;;5112376;28;20058;-64
2023/07/09 06:32:55;;;;;;;9.65;6.57;;;;;;;;;;5112321;28;20063;-64
2023/07/09 06:35:22;;;;;;;10.77;6.78;;;;;;;;;;5112257;28;20055;-65
2023/07/09 06:37:48;;;;;;;7.35;5.72;;;;;;;;;;5107285;28;20040;-66
2023/07/09 06:40:15;;;;;;;7.72;5.30;;;;;;;;;;5115666;28;20056;-64
2023/07/09 06:42:42;;;;;;;10.05;6.05;;;;;;;;;;5115153;28;20058;-64
2023/07/09 06:45:09;;;;;;;8.43;5.57;;;;;;;;;;5115267;28;20055;-64
2023/07/09 06:47:36;;;;;;;7.28;5.47;;;;;;;;;;5114865;28;20055;-64
2023/07/09 06:50:04;;;;;;;7.88;5.20;;;;;;;;;;5115270;28;20063;-62
2023/07/09 06:52:31;;;;;;;7.65;5.55;;;;;;;;;;5112480;28;20079;-62
2023/07/09 06:54:58;;;;;;;7.32;5.50;;;;;;;;;;5105130;28;20047;-64
2023/07/09 06:57:25;;;;;;;6.45;5.40;;;;;;;;;;5115502;28;20067;-64
2023/07/09 06:59:51;;;;;;;9.52;4.82;;;;;;;;;;5115326;28;20483;-64
2023/07/09 07:02:18;;;;;;;9.30;5.93;;;;;;;;;;5103763;28;20412;-65
2023/07/09 07:04:45;;;;;;;7.15;6.07;;;;;;;;;;5094250;28;20059;-64
2023/07/09 07:07:13;;;;;;;7.18;4.60;;;;;;;;;;5093938;28;20472;-62
2023/07/09 07:09:40;;;;;;;6.77;4.87;;;;;;;;;;5102427;28;20047;-64
2023/07/09 07:12:07;;;;;;;7.15;5.28;;;;;;;;;;5114968;28;20476;-62
2023/07/09 07:14:34;;;;;;;6.57;5.35;;;;;;;;;;5114483;28;20400;-62
2023/07/09 07:17:01;;;;;;;7.80;5.25;;;;;;;;;;5110697;28;20059;-62
2023/07/09 07:19:28;;;;;;;6.97;5.13;;;;;;;;;;5114611;28;20052;-62
2023/07/09 07:21:54;;;;;;;9.27;5.07;;;;;;;;;;5099105;28;20048;-62
2023/07/09 07:24:23;;;;;;;6.78;5.32;;;;;;;;;;5108436;28;20043;-63
2023/07/09 07:26:49;;;;;;;8.48;5.00;;;;;;;;;;5114411;28;20052;-63
2023/07/09 07:29:16;;;;;;;7.82;5.15;;;;;;;;;;5114487;28;20048;-63
2023/07/09 07:31:43;;;;;;;7.07;4.32;;;;;;;;;;5114918;28;20056;-63
2023/07/09 07:34:11;;;;;;;7.65;5.20;;;;;;;;;;5114613;28;20059;-62
2023/07/09 07:36:38;;;;;;;8.05;5.07;;;;;;;;;;5115142;28;20055;-62
2023/07/09 07:39:04;;;;;;;6.85;5.35;;;;;;;;;;5108833;28;20051;-63
2023/07/09 07:41:33;;;;;;;7.30;5.82;;;;;;;;;;5114743;28;20055;-63
2023/07/09 07:43:59;;;;;;;8.90;6.00;;;;;;;;;;5114858;28;20407;-63
2023/07/09 07:46:28;;;;;;;6.18;4.82;;;;;;;;;;5114808;28;20070;-62
2023/07/09 07:48:55;;;;;;;8.02;5.38;;;;;;;;;;5114080;28;20055;-65
2023/07/09 07:51:22;;;;;;;8.27;5.05;;;;;;;;;;5114819;28;20067;-66
2023/07/09 07:53:49;;;;;;;6.32;5.15;;;;;;;;;;5109986;28;20396;-66
2023/07/09 07:56:16;;;;;;;7.35;5.25;;;;;;;;;;5114171;28;20058;-66
2023/07/09 07:58:44;;;;;;;6.43;4.90;;;;;;;;;;5114069;28;20054;-66
2023/07/09 08:01:11;;;;;;;8.07;5.10;;;;;;;;;;5112093;28;20047;-62
2023/07/09 08:03:38;;;;;;;6.75;5.25;;;;;;;;;;5094176;28;20056;-63
2023/07/09 08:06:06;;;;;;;7.15;4.90;;;;;;;;;;5094328;28;20059;-65
2023/07/09 08:08:32;;;;;;;9.55;5.05;;;;;;;;;;5099041;28;20044;-65
2023/07/09 08:11:01;;;;;;;7.28;5.50;;;;;;;;;;5114029;28;20411;-65
2023/07/09 08:13:28;;;;;;;;;;;;;;;;;;5114647;28;20047;-65
2023/07/09 08:15:56;;;;;;;6.43;5.03;;;;;;;;;;5113526;28;20364;-66
2023/07/09 08:18:23;;;;;;;7.78;5.05;;;;;;;;;;5107715;28;20055;-66
2023/07/09 08:20:49;;;;;;;6.40;5.05;;;;;;;;;;5114237;28;20058;-66
2023/07/09 08:23:16;;;;;;;6.65;5.07;;;;;;;;;;5108180;28;20052;-64
2023/07/09 08:25:43;;;;;;;5.65;5.05;;;;;;;;;;5113872;28;20058;-63
2023/07/09 08:28:10;;;;;;;6.43;4.93;;;;;;;;;;5113173;28;20066;-62
2023/07/09 08:30:37;;;;;;;6.85;5.03;;;;;;;;;;5113921;28;20047;-61
2023/07/09 08:33:05;;;;;;;6.40;5.10;;;;;;;;;;5113544;28;20388;-62
2023/07/09 08:35:33;;;;;;;5.82;5.22;;;;;;;;;;5113716;28;20062;-62
2023/07/09 08:38:00;;;;;;;8.18;5.20;;;;;;;;;;5107092;28;20062;-66
2023/07/09 08:40:26;;;;;;;7.40;4.80;;;;;;;;;;5092690;28;20119;-66
2023/07/09 08:42:57;;;;;;;5.38;4.68;;;;;;;;;;5093355;28;20404;-66
2023/07/09 08:45:31;;;;;;;7.45;4.78;;;;;;;;;;5093327;28;20048;-63
2023/07/09 08:48:02;;;;;;;6.05;5.45;;;;;;;;;;5097106;28;20047;-63
2023/07/09 08:50:33;;;;;;;7.03;5.18;;;;;;;;;;5112810;28;20055;-63
2023/07/09 08:53:00;;;;;;;6.47;5.20;;;;;;;;;;5108305;28;20047;-62
2023/07/09 08:55:28;;;;;;;5.43;4.68;;;;;;;;;;5113347;28;20055;-63
2023/07/09 08:57:57;;;;;;;6.70;4.97;;;;;;;;;;5113265;28;20082;-64
2023/07/09 09:00:28;;;;;;;7.43;5.97;;;;;;;;;;5112408;28;20391;-64
2023/07/09 09:02:57;;;;;;;7.05;5.40;;;;;;;;;;5096658;28;20059;-63
2023/07/09 09:05:24;;;;;;;7.10;5.45;;;;;;;;;;5093017;28;20503;-64
2023/07/09 09:07:55;;;;;;;6.70;5.18;;;;;;;;;;5102079;28;20051;-63
2023/07/09 09:10:27;;;;;;;6.70;5.70;;;;;;;;;;5105644;28;20058;-63
2023/07/09 09:13:00;;;;;;;9.13;5.25;;;;;;;;;;5097415;28;20051;-62
2023/07/09 09:15:27;;;;;;;7.25;4.90;;;;;;;;;;5105669;28;20048;-62
2023/07/09 09:18:10;;;;;;;6.53;4.57;;;;;;;;;;5110449;28;20051;-63
2023/07/09 09:20:37;;;;;;;5.78;5.20;;;;;;;;;;5107447;28;20047;-63
2023/07/09 09:23:11;;;;;;;6.88;5.38;;;;;;;;;;5110607;28;20062;-63
2023/07/09 09:25:40;;;;;;;5.68;4.22;;;;;;;;;;5112791;28;20381;-63
2023/07/09 09:28:08;;;;;;;5.90;4.25;;;;;;;;;;5112307;28;20047;-63
2023/07/09 09:30:34;;;;;;;6.00;4.80;;;;;;;;;;5110635;28;20048;-62
2023/07/09 09:33:02;;;;;;;7.25;4.03;;;;;;;;;;5112521;28;20056;-63
2023/07/09 09:35:29;;;;;;;6.50;4.68;;;;;;;;;;5108838;28;20047;-63
2023/07/09 09:37:57;;;;;;;6.85;4.38;;;;;;;;;;5109813;28;20063;-63
2023/07/09 09:40:26;;;;;;;6.00;4.25;;;;;;;;;;5112257;28;20503;-63
2023/07/09 09:42:55;;;;;;;7.15;4.88;;;;;;;;;;5112595;28;20424;-63
2023/07/09 09:45:22;;;;;;;6.38;4.50;;;;;;;;;;5112499;28;20058;-63
2023/07/09 09:47:49;;;;;;;5.15;4.32;;;;;;;;;;5112290;28;20412;-63
2023/07/09 09:50:16;;;;;;;5.78;4.40;;;;;;;;;;5112347;28;20392;-63
2023/07/09 09:52:44;;;;;;;5.40;4.20;;;;;;;;;;5106834;28;20058;-63
2023/07/09 09:55:12;;;;;;;5.57;4.22;;;;;;;;;;5112202;28;20063;-63
2023/07/09 09:57:40;;;;;;;5.00;4.38;;;;;;;;;;5111885;28;20484;-63
2023/07/09 10:00:15;;;;;;;6.95;4.90;;;;;;;;;;5111919;28;20052;-63
2023/07/09 10:02:42;;;;;;;4.90;4.32;;;;;;;;;;5097913;28;20413;-63
2023/07/09 10:05:12;;;;;;;6.03;4.60;;;;;;;;;;5103409;28;20054;-64
2023/07/09 10:07:42;;;;;;;5.22;4.70;;;;;;;;;;5108278;28;20059;-63
2023/07/09 10:10:13;;;;;;;5.72;4.60;;;;;;;;;;5112341;28;20048;-64
2023/07/09 10:12:45;;;;;;;5.63;4.22;;;;;;;;;;5116032;28;20059;-63
2023/07/09 10:15:16;;;;;;;4.80;4.28;;;;;;;;;;5116483;28;20055;-67
2023/07/09 10:17:47;;;;;;;5.32;4.35;;;;;;;;;;5115809;28;20059;-68
2023/07/09 10:20:25;;;;;;;6.65;4.10;;;;;;;;;;5115810;28;20054;-68
2023/07/09 10:22:55;;;;;;;6.30;4.15;;;;;;;;;;5110034;28;20056;-68
2023/07/09 10:25:37;;;;;;;5.32;4.30;;;;;;;;;;5115894;28;20055;-68
2023/07/09 10:28:11;;;;;;;4.18;3.78;;;;;;;;;;5112338;28;20051;-63
2023/07/09 10:30:42;;;;;;;4.22;3.83;;;;;;;;;;5115047;28;20051;-63
2023/07/09 10:33:10;;;;;;;6.13;4.00;;;;;;;;;;5115402;28;20062;-63
2023/07/09 10:35:39;;;;;;;5.25;3.42;;;;;;;;;;5115778;28;20055;-63
2023/07/09 10:38:16;;;;;;;4.72;3.47;;;;;;;;;;5109332;28;20051;-63
2023/07/09 10:40:44;;;;;;;4.25;3.72;;;;;;;;;;5110270;28;20369;-63
2023/07/09 10:43:16;;;;;;;4.38;3.38;;;;;;;;;;5115788;28;20047;-62
2023/07/09 10:45:45;;;;;;;5.70;3.90;;;;;;;;;;5115987;28;20048;-63
2023/07/09 10:48:14;;;;;;;7.05;4.50;;;;;;;;;;5115277;28;20487;-63
2023/07/09 10:50:42;;;;;;;5.90;3.88;;;;;;;;;;5115598;28;20055;-63
2023/07/09 10:53:13;;;;;;;4.20;3.80;;;;;;;;;;5111033;28;20071;-63
2023/07/09 10:55:42;;;;;;;5.53;3.40;;;;;;;;;;5115575;28;20048;-63
2023/07/09 10:58:20;;;;;;;3.90;3.53;;;;;;;;;;5115500;28;20056;-63
2023/07/09 11:00:47;;;;;;;3.97;3.33;;;;;;;;;;5111207;28;20048;-63
2023/07/09 11:03:15;;;;;;;4.32;3.60;;;;;;;;;;5096242;28;20484;-63
2023/07/09 11:05:43;;;;;;;6.25;3.80;;;;;;;;;;5095039;28;20481;-63
2023/07/09 11:08:12;;;;;;;4.70;3.35;;;;;;;;;;5108238;28;20059;-63
2023/07/09 11:10:42;;;;;;;4.43;3.70;;;;;;;;;;5115193;28;20048;-64
2023/07/09 11:13:12;;;;;;;6.90;3.97;;;;;;;;;;5115375;28;20437;-63
2023/07/09 11:15:44;;;;;;;5.25;3.55;;;;;;;;;;5115161;28;20051;-64
2023/07/09 11:18:13;;;;;;;5.05;3.22;;;;;;;;;;5115194;28;20408;-64
2023/07/09 11:20:43;;;;;;;3.63;3.25;;;;;;;;;;5110687;28;20396;-64
2023/07/09 11:23:18;;;;;;;4.25;3.40;;;;;;;;;;5110123;28;20055;-64
2023/07/09 11:25:46;;;;;;;6.05;3.70;;;;;;;;;;5114813;28;20048;-63
2023/07/09 11:28:13;;;;;;;6.75;3.97;;;;;;;;;;5115018;28;20055;-64
2023/07/09 11:30:48;;;;;;;3.67;3.28;;;;;;;;;;5109904;28;20052;-64
2023/07/09 11:33:19;;;;;;;4.95;3.55;;;;;;;;;;5115132;28;20056;-64
2023/07/09 11:35:48;;;;;;;5.07;3.50;;;;;;;;;;5112236;28;20055;-64
2023/07/09 11:38:18;;;;;;;4.25;3.35;;;;;;;;;;5112003;28;20048;-64
2023/07/09 11:40:48;;;;;;;4.00;3.00;;;;;;;;;;5114897;28;20047;-64
2023/07/09 11:43:27;;;;;;;5.00;3.50;;;;;;;;;;5114784;28;20055;-64
2023/07/09 11:45:57;;;;;;;6.03;3.00;;;;;;;;;;5114162;28;20503;-64
2023/07/09 11:48:25;;;;;;;3.85;2.95;;;;;;;;;;5114446;28;20051;-64
2023/07/09 11:50:53;;;;;;;3.88;3.00;;;;;;;;;;5109030;28;20051;-64
2023/07/09 11:53:27;;;;;;;3.50;3.20;;;;;;;;;;5114642;28;20056;-64
2023/07/09 11:55:53;;;;;;;3.65;3.17;;;;;;;;;;5114596;28;20051;-64
2023/07/09 11:58:20;;;;;;;;;;;;;;;;;;5114598;28;20134;-63
2023/07/09 12:00:46;;;;;;;;;;;;;;;;;;5114874;28;19919;-64
2023/07/09 12:03:13;;;;;;;;;;;;;;;;;;5095737;28;19935;-64
2023/07/09 12:05:42;;;;;;;4.22;3.05;;;;;;;;;;5094394;28;19927;-63
2023/07/09 12:08:09;;;;;;;4.10;2.92;;;;;;;;;;5114102;28;20052;-64
2023/07/09 12:10:37;;;;;;;4.82;3.08;;;;;;;;;;5108302;28;20490;-65
2023/07/09 12:13:04;;;;;;;4.22;3.38;;;;;;;;;;5106154;28;20052;-64
2023/07/09 12:15:32;;;;;;;5.20;3.38;;;;;;;;;;5113380;28;20054;-64
2023/07/09 12:18:00;;;;;;;3.90;2.90;;;;;;;;;;5113492;28;20063;-64
2023/07/09 12:20:30;;;;;;;4.85;3.15;;;;;;;;;;5110105;28;20047;-64
2023/07/09 12:22:58;;;;;;;4.90;3.30;;;;;;;;;;5113735;28;20078;-64
2023/07/09 12:25:26;;;;;;;5.13;3.50;;;;;;;;;;5113942;28;20055;-64
2023/07/09 12:27:53;;;;;;;3.67;3.10;;;;;;;;;;5113632;28;20051;-64
2023/07/09 12:30:20;;;;;;;5.53;3.00;;;;;;;;;;5110989;28;20480;-63
2023/07/09 12:32:47;;;;;;;;;;;;;;;;;;5105630;28;20051;-63
2023/07/09 12:35:14;;;;;;;5.63;3.45;;;;;;;;;;5113562;28;19929;-64
2023/07/09 12:37:44;;;;;;;5.22;3.55;;;;;;;;;;5110000;28;20059;-63
2023/07/09 12:40:17;;;;;;;6.32;3.10;;;;;;;;;;5113503;28;20488;-64
2023/07/09 12:42:44;;;;;;;5.65;3.33;;;;;;;;;;5106380;28;20059;-64
2023/07/09 12:45:15;;;;;;;5.53;3.40;;;;;;;;;;5113207;28;20051;-63
2023/07/09 12:47:42;;;;;;;4.63;3.25;;;;;;;;;;5113393;28;20507;-63
2023/07/09 12:50:18;;;;;;;4.85;2.90;;;;;;;;;;5113212;28;20078;-63
2023/07/09 12:52:46;;;;;;;3.78;3.33;;;;;;;;;;5110753;28;20047;-63
2023/07/09 12:55:21;;;;;;;4.72;2.92;;;;;;;;;;5111832;28;20056;-62
2023/07/09 12:57:48;;;;;;;5.78;3.30;;;;;;;;;;5113294;28;20047;-63
2023/07/09 13:00:15;;;;;;;4.83;3.57;;;;;;;;;;5112611;28;20047;-63
2023/07/09 13:02:43;;;;;;;6.07;3.35;;;;;;;;;;5098559;28;20048;-63
2023/07/09 13:05:18;;;;;;;5.80;3.20;;;;;;;;;;5092706;28;20063;-63
2023/07/09 13:07:48;;;;;;;6.47;3.20;;;;;;;;;;5106967;28;20047;-63
2023/07/09 13:10:16;;;;;;;4.70;3.20;;;;;;;;;;5113158;28;20054;-63
2023/07/09 13:12:47;;;;;;;4.80;3.25;;;;;;;;;;5112983;28;20048;-63
2023/07/09 13:15:21;;;;;;;5.50;3.38;;;;;;;;;;5112818;28;20052;-63
2023/07/09 13:17:47;;;;;;;5.28;3.25;;;;;;;;;;5112341;28;20059;-63
2023/07/09 13:20:14;;;;;;;3.83;3.13;;;;;;;;;;5112649;28;20062;-63
2023/07/09 13:22:41;;;;;;;5.90;3.40;;;;;;;;;;5107125;28;20043;-63
2023/07/09 13:25:09;;;;;;;5.07;3.10;;;;;;;;;;5112631;28;20055;-63
2023/07/09 13:27:36;;;;;;;3.72;3.00;;;;;;;;;;5112460;28;20461;-63
2023/07/09 13:30:05;;;;;;;4.03;2.97;;;;;;;;;;5112804;28;20058;-63
2023/07/09 13:32:32;;;;;;;5.78;4.38;;;;;;;;;;5101938;28;20044;-63
2023/07/09 13:34:58;;;;;;;4.45;3.10;;;;;;;;;;5092430;28;20063;-63
2023/07/09 13:37:25;;;;;;;6.90;3.45;;;;;;;;;;5097588;28;20059;-63
2023/07/09 13:39:52;;;;;;;4.97;3.30;;;;;;;;;;5104736;28;20051;-64
2023/07/09 13:42:20;;;;;;;4.88;3.40;;;;;;;;;;5112203;28;20455;-63
2023/07/09 13:44:47;;;;;;;4.53;3.53;;;;;;;;;;5112426;28;20058;-63
2023/07/09 13:47:16;;;;;;;;;;;;;;;;;;5116428;28;20476;-63
2023/07/09 13:49:45;;;;;;;6.30;4.25;;;;;;;;;;5116684;28;19920;-63
2023/07/09 13:58:18;;;;;;;6.30;3.20;;;;;;;;;;5082067;28;20037;-63
2023/07/09 14:00:45;;;;;;;;;;;;;;;;;;5076623;28;20048;-67
2023/07/09 14:21:32;;;;;;;7.32;3.65;;;;;;;;;;4047480;28;22672;-64
2023/07/09 14:36:31;;;;;;;4.68;3.25;;;;;;;;;;4093343;28;21106;-63
2023/07/09 14:38:59;;;;;;;6.50;3.50;;;;;;;;;;4046294;28;21697;-64
2023/07/09 14:41:27;;;;;;;7.05;3.70;;;;;;;;;;4039005;28;21808;-64
2023/07/09 14:43:55;;;;;;;7.55;3.28;;;;;;;;;;4090577;28;21806;-63
2023/07/09 14:46:22;;;;;;;;;;;;;;;;;;4138620;27;21901;-63
2023/07/09 14:48:49;;;;;;;6.32;3.25;;;;;;;;;;4036222;28;22709;-63
2023/07/09 14:51:16;;;;;;;5.70;3.40;;;;;;;;;;4502337;28;20083;-67
2023/07/09 14:53:43;;;;;;;7.70;3.22;;;;;;;;;;5114104;28;20047;-67
2023/07/09 14:56:13;;;;;;;5.93;3.50;;;;;;;;;;5115513;28;20051;-67
2023/07/09 14:58:40;;;;;;;5.63;3.60;;;;;;;;;;5110152;28;20062;-67
2023/07/09 15:01:10;;;;;;;7.07;3.75;;;;;;;;;;5113922;28;20055;-67
2023/07/09 15:03:37;;;;;;;6.05;3.65;;;;;;;;;;5114681;28;20051;-66
2023/07/09 15:06:04;;;;;;;7.90;4.00;;;;;;;;;;5109035;28;20048;-66
2023/07/09 15:08:31;;;;;;;4.97;3.53;;;;;;;;;;5115027;28;20059;-67
2023/07/09 15:10:57;;;;;;;4.80;3.50;;;;;;;;;;5110540;28;20041;-67
2023/07/09 15:13:30;;;;;;;4.85;3.72;;;;;;;;;;5112704;28;20507;-66
2023/07/09 15:15:59;;;;;;;9.80;4.13;;;;;;;;;;5115205;28;20055;-67
2023/07/09 15:18:25;;;;;;;;;;;;;;;;;;5115175;28;20048;-67
2023/07/09 15:20:53;;;;;;;11.98;4.25;;;;;;;;;;5110927;28;19927;-67
2023/07/09 15:23:22;;;;;;;8.27;4.10;;;;;;;;;;5113298;28;20044;-67
2023/07/09 15:25:49;;;;;;;9.70;4.28;;;;;;;;;;5114746;28;20048;-66
2023/07/09 15:28:15;;;;;;;8.30;4.20;;;;;;;;;;5112063;28;20052;-67